SAB552 FAOR-EBBR
Flight info
| Callsign | SAB552 |
|---|---|
| Flight time | N/A |
| Altitude | 23000 |
| Route | NESAN1A NESAN Q40 EVIPI Q16 ETMIT/N0485F350 UM214 OKLAP/N0489F340 UM214 DUGBA/N0481F360 UM214 VOLKO/N0473F380 UM214 ILDOR UG655 GARIN/N0489F320 G655 SEB/N0468F380 M740 KDR/N0463F400 M740 SARKI M726 DOKIK DCT SENTI DCT ERPEM DCT APSUX DCT BEGUD DCT GEN DCT PUNSA DCT DEVDI DCT SUTAL N852 LNO |
| Aircraft | A343/H-SDE2E3FGHIJ4J5M1RWXY/LB1D1 |
Departure
| Time | 2026-05-03 20:29 |
|---|---|
| Airport | O.R. Tambo International Airport (FAOR) |
Arrival
| Time | N/A |
|---|---|
| Airport | Brussels Airport (EBBR) |
| Time | Latitude | Longitude | Altitude | Speed | Heading |
|---|---|---|---|---|---|
| 2026-05-03 20:15 | -26.12810 | 28.23509 | 5542 ft | 0 kts | 96° |
| 2026-05-03 20:21 | -26.12810 | 28.23511 | 5542 ft | 1 kts | 96° |
| 2026-05-03 20:21 | -26.12811 | 28.23520 | 5542 ft | 2 kts | 96° |
| 2026-05-03 20:21 | -26.12814 | 28.23556 | 5542 ft | 7 kts | 96° |
| 2026-05-03 20:21 | -26.12821 | 28.23631 | 5536 ft | 12 kts | 96° |
| 2026-05-03 20:22 | -26.12834 | 28.23740 | 5538 ft | 16 kts | 106° |
| 2026-05-03 20:22 | -26.12913 | 28.23766 | 5535 ft | 12 kts | 193° |
| 2026-05-03 20:22 | -26.12989 | 28.23744 | 5535 ft | 11 kts | 194° |
| 2026-05-03 20:22 | -26.13062 | 28.23721 | 5535 ft | 11 kts | 196° |
| 2026-05-03 20:23 | -26.13143 | 28.23695 | 5535 ft | 14 kts | 195° |
| 2026-05-03 20:23 | -26.13243 | 28.23665 | 5535 ft | 16 kts | 195° |
| 2026-05-03 20:23 | -26.13355 | 28.23631 | 5535 ft | 18 kts | 195° |
| 2026-05-03 20:23 | -26.13483 | 28.23591 | 5535 ft | 20 kts | 196° |
| 2026-05-03 20:24 | -26.13608 | 28.23552 | 5536 ft | 18 kts | 195° |
| 2026-05-03 20:24 | -26.13721 | 28.23516 | 5536 ft | 16 kts | 196° |
| 2026-05-03 20:24 | -26.13820 | 28.23485 | 5537 ft | 14 kts | 195° |
| 2026-05-03 20:24 | -26.13909 | 28.23458 | 5536 ft | 12 kts | 195° |
| 2026-05-03 20:25 | -26.13989 | 28.23433 | 5536 ft | 12 kts | 195° |
| 2026-05-03 20:25 | -26.14066 | 28.23410 | 5536 ft | 11 kts | 195° |
| 2026-05-03 20:25 | -26.14144 | 28.23385 | 5536 ft | 12 kts | 196° |
| 2026-05-03 20:25 | -26.14229 | 28.23358 | 5536 ft | 14 kts | 195° |
| 2026-05-03 20:26 | -26.14331 | 28.23327 | 5536 ft | 16 kts | 195° |
| 2026-05-03 20:26 | -26.14445 | 28.23292 | 5536 ft | 18 kts | 196° |
| 2026-05-03 20:26 | -26.14560 | 28.23290 | 5536 ft | 16 kts | 159° |
| 2026-05-03 20:26 | -26.14614 | 28.23378 | 5534 ft | 14 kts | 101° |
| 2026-05-03 20:27 | -26.14593 | 28.23449 | 5537 ft | 8 kts | 30° |
| 2026-05-03 20:27 | -26.14579 | 28.23453 | 5534 ft | 0 kts | 14° |
| 2026-05-03 20:27 | -26.14568 | 28.23456 | 5534 ft | 6 kts | 14° |
| 2026-05-03 20:28 | -26.14379 | 28.23514 | 5536 ft | 54 kts | 16° |
| 2026-05-03 20:28 | -26.13857 | 28.23678 | 5540 ft | 101 kts | 15° |
| 2026-05-03 20:28 | -26.13038 | 28.23934 | 5535 ft | 143 kts | 15° |
| 2026-05-03 20:28 | -26.11962 | 28.24267 | 5543 ft | 177 kts | 15° |
| 2026-05-03 20:29 | -26.10743 | 28.24654 | 5910 ft | 183 kts | 15° |
| 2026-05-03 20:29 | -26.09521 | 28.25041 | 6488 ft | 182 kts | 14° |
| 2026-05-03 20:29 | -26.08278 | 28.25436 | 6822 ft | 195 kts | 14° |
| 2026-05-03 20:29 | -26.06943 | 28.25897 | 6971 ft | 207 kts | 15° |
| 2026-05-03 20:30 | -26.05524 | 28.26390 | 7081 ft | 220 kts | 15° |
| 2026-05-03 20:30 | -26.04018 | 28.26895 | 7240 ft | 233 kts | 14° |
| 2026-05-03 20:30 | -26.02368 | 28.27149 | 7297 ft | 248 kts | 351° |
| 2026-05-03 20:30 | -26.00652 | 28.26679 | 7472 ft | 261 kts | 342° |
| 2026-05-03 20:31 | -25.98858 | 28.26098 | 7714 ft | 273 kts | 343° |
| 2026-05-03 20:31 | -25.97012 | 28.25531 | 8132 ft | 277 kts | 344° |
| 2026-05-03 20:31 | -25.95148 | 28.24989 | 8666 ft | 277 kts | 345° |
| 2026-05-03 20:31 | -25.93276 | 28.24449 | 9188 ft | 278 kts | 345° |
| 2026-05-03 20:32 | -25.91402 | 28.23908 | 9742 ft | 279 kts | 345° |
| 2026-05-03 20:32 | -25.89524 | 28.23364 | 10280 ft | 279 kts | 345° |
| 2026-05-03 20:32 | -25.87636 | 28.22816 | 10690 ft | 284 kts | 345° |
| 2026-05-03 20:32 | -25.85687 | 28.22249 | 10894 ft | 296 kts | 345° |
| 2026-05-03 20:33 | -25.83655 | 28.21658 | 11093 ft | 307 kts | 345° |
| 2026-05-03 20:33 | -25.81551 | 28.21047 | 11292 ft | 319 kts | 345° |
| 2026-05-03 20:33 | -25.79366 | 28.20414 | 11470 ft | 330 kts | 345° |
| 2026-05-03 20:33 | -25.77115 | 28.19760 | 11664 ft | 340 kts | 345° |
| 2026-05-03 20:34 | -25.74791 | 28.19087 | 11844 ft | 350 kts | 345° |
| 2026-05-03 20:34 | -25.72437 | 28.18404 | 11907 ft | 359 kts | 345° |
| 2026-05-03 20:34 | -25.69986 | 28.17694 | 12045 ft | 368 kts | 345° |
| 2026-05-03 20:34 | -25.67482 | 28.16969 | 12269 ft | 375 kts | 345° |
| 2026-05-03 20:35 | -25.64950 | 28.16236 | 12564 ft | 378 kts | 345° |
| 2026-05-03 20:35 | -25.62393 | 28.15496 | 12867 ft | 381 kts | 345° |
| 2026-05-03 20:35 | -25.59818 | 28.14751 | 13169 ft | 384 kts | 345° |
| 2026-05-03 20:35 | -25.57221 | 28.14000 | 13475 ft | 387 kts | 345° |
| 2026-05-03 20:36 | -25.54609 | 28.13245 | 13774 ft | 390 kts | 345° |
| 2026-05-03 20:36 | -25.51975 | 28.12484 | 14064 ft | 392 kts | 345° |
| 2026-05-03 20:36 | -25.49342 | 28.11657 | 14384 ft | 394 kts | 342° |
| 2026-05-03 20:36 | -25.46744 | 28.10664 | 14696 ft | 395 kts | 339° |
| 2026-05-03 20:37 | -25.44175 | 28.09578 | 15011 ft | 396 kts | 338° |
| 2026-05-03 20:37 | -25.41614 | 28.08451 | 15295 ft | 397 kts | 338° |
| 2026-05-03 20:37 | -25.39048 | 28.07310 | 15605 ft | 398 kts | 338° |
| 2026-05-03 20:37 | -25.36477 | 28.06173 | 15924 ft | 399 kts | 338° |
| 2026-05-03 20:38 | -25.33893 | 28.05043 | 16267 ft | 400 kts | 338° |
| 2026-05-03 20:38 | -25.31295 | 28.03918 | 16711 ft | 402 kts | 338° |
| 2026-05-03 20:38 | -25.28687 | 28.02795 | 17176 ft | 403 kts | 338° |
| 2026-05-03 20:38 | -25.26069 | 28.01672 | 17630 ft | 405 kts | 338° |
| 2026-05-03 20:39 | -25.23437 | 28.00545 | 18082 ft | 406 kts | 338° |
| 2026-05-03 20:39 | -25.20794 | 27.99414 | 18516 ft | 408 kts | 338° |
| 2026-05-03 20:39 | -25.18139 | 27.98280 | 18916 ft | 410 kts | 338° |
| 2026-05-03 20:39 | -25.15473 | 27.97140 | 19280 ft | 412 kts | 338° |
| 2026-05-03 20:40 | -25.12793 | 27.95993 | 19640 ft | 415 kts | 338° |
| 2026-05-03 20:40 | -25.10097 | 27.94840 | 20004 ft | 417 kts | 338° |
| 2026-05-03 20:40 | -25.07388 | 27.93682 | 20360 ft | 419 kts | 338° |
| 2026-05-03 20:40 | -25.04664 | 27.92518 | 20730 ft | 421 kts | 338° |
| 2026-05-03 20:41 | -25.01925 | 27.91349 | 21085 ft | 423 kts | 338° |
| 2026-05-03 20:41 | -24.99179 | 27.90177 | 21432 ft | 425 kts | 338° |
| 2026-05-03 20:41 | -24.96449 | 27.89012 | 21780 ft | 427 kts | 338° |
| 2026-05-03 20:41 | -24.93639 | 27.87814 | 22141 ft | 429 kts | 338° |
| 2026-05-03 20:42 | -24.90887 | 27.86642 | 22481 ft | 431 kts | 338° |
| 2026-05-03 20:42 | -24.88073 | 27.85493 | 22822 ft | 433 kts | 342° |
| 2026-05-03 20:42 | -24.85128 | 27.84738 | 23166 ft | 436 kts | 348° |
| 2026-05-03 20:42 | -24.82121 | 27.84194 | 23499 ft | 439 kts | 350° |
| 2026-05-03 20:43 | -24.79089 | 27.83741 | 23831 ft | 441 kts | 351° |
| 2026-05-03 20:43 | -24.76030 | 27.83334 | 24110 ft | 444 kts | 352° |
| 2026-05-03 20:43 | -24.72957 | 27.82943 | 24371 ft | 446 kts | 352° |
| 2026-05-03 20:43 | -24.69865 | 27.82551 | 24636 ft | 448 kts | 352° |
| 2026-05-03 20:44 | -24.66757 | 27.82150 | 24886 ft | 451 kts | 352° |
| 2026-05-03 20:44 | -24.63632 | 27.81741 | 25146 ft | 453 kts | 352° |
| 2026-05-03 20:44 | -24.60497 | 27.81325 | 25414 ft | 455 kts | 352° |
| 2026-05-03 20:44 | -24.57345 | 27.80903 | 25670 ft | 457 kts | 352° |
| 2026-05-03 20:45 | -24.54177 | 27.80478 | 25926 ft | 459 kts | 352° |
| 2026-05-03 20:45 | -24.50994 | 27.80051 | 26171 ft | 462 kts | 351° |
| 2026-05-03 20:45 | -24.47800 | 27.79622 | 26408 ft | 464 kts | 351° |
| 2026-05-03 20:45 | -24.44593 | 27.79192 | 26656 ft | 466 kts | 351° |
| 2026-05-03 20:46 | -24.41367 | 27.78760 | 26904 ft | 468 kts | 351° |
| 2026-05-03 20:46 | -24.38130 | 27.78327 | 27128 ft | 470 kts | 351° |
| 2026-05-03 20:46 | -24.34882 | 27.77892 | 27366 ft | 472 kts | 351° |
| 2026-05-03 20:46 | -24.31615 | 27.77455 | 27586 ft | 474 kts | 351° |
| 2026-05-03 20:47 | -24.28337 | 27.77018 | 27808 ft | 476 kts | 351° |
| 2026-05-03 20:47 | -24.25049 | 27.76579 | 28031 ft | 477 kts | 351° |
| 2026-05-03 20:47 | -24.21743 | 27.76138 | 28235 ft | 479 kts | 351° |
| 2026-05-03 20:47 | -24.18426 | 27.75696 | 28456 ft | 481 kts | 351° |
| 2026-05-03 20:48 | -24.15095 | 27.75252 | 28665 ft | 483 kts | 351° |
| 2026-05-03 20:48 | -24.11757 | 27.74808 | 28860 ft | 485 kts | 351° |
| 2026-05-03 20:48 | -24.08404 | 27.74362 | 29090 ft | 486 kts | 351° |
| 2026-05-03 20:48 | -24.05049 | 27.73915 | 29370 ft | 485 kts | 351° |
| 2026-05-03 20:49 | -24.01700 | 27.73470 | 29646 ft | 485 kts | 351° |
| 2026-05-03 20:49 | -23.99482 | 27.73176 | 29833 ft | 485 kts | 351° |
| 2026-05-03 20:49 | -23.95003 | 27.72581 | 30233 ft | 484 kts | 351° |
| 2026-05-03 20:49 | -23.92784 | 27.72286 | 30379 ft | 484 kts | 351° |
| 2026-05-03 20:50 | -23.89440 | 27.71842 | 30629 ft | 484 kts | 351° |
| 2026-05-03 20:50 | -23.86107 | 27.71400 | 30872 ft | 483 kts | 351° |
| 2026-05-03 20:50 | -23.82774 | 27.70958 | 31113 ft | 482 kts | 351° |
| 2026-05-03 20:50 | -23.79448 | 27.70518 | 31353 ft | 481 kts | 351° |
| 2026-05-03 20:51 | -23.76133 | 27.70079 | 31606 ft | 480 kts | 351° |
| 2026-05-03 20:51 | -23.72824 | 27.69641 | 31852 ft | 479 kts | 351° |
| 2026-05-03 20:51 | -23.69521 | 27.69204 | 32071 ft | 478 kts | 351° |
| 2026-05-03 20:51 | -23.66225 | 27.68768 | 32294 ft | 477 kts | 351° |
| 2026-05-03 20:52 | -23.62934 | 27.68333 | 32522 ft | 476 kts | 351° |
| 2026-05-03 20:52 | -23.59648 | 27.67898 | 32706 ft | 475 kts | 350° |
| 2026-05-03 20:52 | -23.56371 | 27.67466 | 32957 ft | 474 kts | 350° |
| 2026-05-03 20:52 | -23.53101 | 27.67035 | 33189 ft | 473 kts | 350° |
| 2026-05-03 20:53 | -23.49837 | 27.66604 | 33373 ft | 472 kts | 350° |
| 2026-05-03 20:53 | -23.46576 | 27.66174 | 33559 ft | 472 kts | 350° |
| 2026-05-03 20:53 | -23.43321 | 27.65745 | 33749 ft | 471 kts | 350° |
| 2026-05-03 20:53 | -23.40071 | 27.65317 | 33933 ft | 470 kts | 350° |
| 2026-05-03 20:54 | -23.36865 | 27.64894 | 34099 ft | 470 kts | 350° |
| 2026-05-03 20:54 | -23.27070 | 27.63604 | 34170 ft | 474 kts | 350° |
| 2026-05-03 20:55 | -23.20544 | 27.62749 | 34165 ft | 471 kts | 350° |
| 2026-05-03 20:55 | -23.14013 | 27.62044 | 34160 ft | 472 kts | 352° |
| 2026-05-03 20:56 | -23.07465 | 27.61445 | 34159 ft | 472 kts | 352° |
| 2026-05-03 20:56 | -23.00916 | 27.60829 | 34155 ft | 472 kts | 351° |
| 2026-05-03 20:57 | -22.94377 | 27.60192 | 34157 ft | 472 kts | 351° |
| 2026-05-03 20:57 | -22.87846 | 27.59548 | 34157 ft | 471 kts | 351° |
| 2026-05-03 20:58 | -22.81312 | 27.58903 | 34162 ft | 472 kts | 351° |
| 2026-05-03 20:58 | -22.74775 | 27.58259 | 34162 ft | 472 kts | 351° |
| 2026-05-03 20:59 | -22.68239 | 27.57617 | 34162 ft | 472 kts | 351° |
| 2026-05-03 20:59 | -22.61706 | 27.56975 | 34162 ft | 472 kts | 351° |
| 2026-05-03 21:00 | -22.56273 | 27.56442 | 34164 ft | 471 kts | 351° |
| 2026-05-03 21:00 | -22.48634 | 27.55694 | 34167 ft | 471 kts | 351° |
| 2026-05-03 21:01 | -22.42110 | 27.55056 | 34161 ft | 470 kts | 351° |
| 2026-05-03 21:01 | -22.35600 | 27.54420 | 34162 ft | 470 kts | 351° |
| 2026-05-03 21:02 | -22.29094 | 27.53784 | 34163 ft | 470 kts | 351° |
| 2026-05-03 21:02 | -22.22627 | 27.53152 | 34162 ft | 470 kts | 351° |
| 2026-05-03 21:03 | -22.16123 | 27.52518 | 34161 ft | 469 kts | 351° |
| 2026-05-03 21:03 | -22.09632 | 27.51886 | 34153 ft | 468 kts | 351° |
| 2026-05-03 21:04 | -22.03154 | 27.51255 | 34153 ft | 467 kts | 351° |
| 2026-05-03 21:04 | -21.96673 | 27.50625 | 34153 ft | 467 kts | 351° |
| 2026-05-03 21:05 | -21.90172 | 27.50185 | 34144 ft | 469 kts | 354° |
| 2026-05-03 21:05 | -21.83653 | 27.49997 | 34157 ft | 468 kts | 354° |
| 2026-05-03 21:06 | -21.77157 | 27.49802 | 34155 ft | 467 kts | 354° |
| 2026-05-03 21:06 | -21.70667 | 27.49562 | 34162 ft | 466 kts | 353° |
| 2026-05-03 21:07 | -21.64176 | 27.49301 | 34159 ft | 467 kts | 353° |
| 2026-05-03 21:07 | -21.57691 | 27.49039 | 34159 ft | 465 kts | 353° |
| 2026-05-03 21:08 | -21.51237 | 27.48781 | 34153 ft | 464 kts | 353° |
| 2026-05-03 21:08 | -21.44790 | 27.48524 | 34150 ft | 463 kts | 353° |
| 2026-05-03 21:09 | -21.38347 | 27.48267 | 34159 ft | 464 kts | 353° |
| 2026-05-03 21:09 | -21.31898 | 27.48010 | 34142 ft | 464 kts | 353° |
| 2026-05-03 21:10 | -21.25473 | 27.47755 | 34156 ft | 462 kts | 353° |
| 2026-05-03 21:10 | -21.19045 | 27.47496 | 34155 ft | 462 kts | 353° |
| 2026-05-03 21:11 | -21.12755 | 27.46437 | 34161 ft | 457 kts | 343° |
| 2026-05-03 21:11 | -21.06562 | 27.44845 | 34155 ft | 458 kts | 342° |
| 2026-05-03 21:12 | -21.00390 | 27.43172 | 34148 ft | 457 kts | 342° |
| 2026-05-03 21:12 | -20.94231 | 27.41507 | 34152 ft | 456 kts | 342° |